Time;durP1;ratioP1;P1;durP2;ratioP2;P2;SDS_P1;SDS_P2;PMS_P1;PMS_P2;Temp;Humidity;BMP_temperature;BMP_pressure;BME280_temperature;BME280_humidity;BME280_pressure;Samples;Min_cycle;Max_cycle;Signal;HPM_P1;HPM_P2
2021/04/28 00:27:46;;;;;;;2.47;2.00;;;;;;;;;;4127505;32;20240;-67
2021/04/28 00:30:14;;;;;;;2.97;2.00;;;;;;;;;;4136033;34;20553;-67
2021/04/28 00:32:40;;;;;;;3.10;2.22;;;;;;;;;;4137441;34;20100;-67
2021/04/28 00:35:09;;;;;;;2.20;2.00;;;;;;;;;;4137395;34;20194;-67
2021/04/28 00:37:35;;;;;;;2.53;2.33;;;;;;;;;;4137522;34;20122;-67
2021/04/28 00:40:06;;;;;;;4.75;2.15;;;;;;;;;;4125164;34;20127;-67
2021/04/28 00:42:32;;;;;;;2.22;2.03;;;;;;;;;;4137235;34;20096;-66
2021/04/28 00:44:58;;;;;;;2.75;2.28;;;;;;;;;;4137379;34;20139;-66
2021/04/28 00:47:24;;;;;;;2.78;2.05;;;;;;;;;;4137384;34;20095;-66
2021/04/28 00:49:50;;;;;;;3.15;2.10;;;;;;;;;;4137323;34;20124;-67
2021/04/28 00:52:16;;;;;;;2.78;2.33;;;;;;;;;;4137541;34;20250;-67
2021/04/28 00:54:42;;;;;;;2.92;2.17;;;;;;;;;;4124858;34;20131;-66
2021/04/28 00:57:08;;;;;;;6.22;2.10;;;;;;;;;;4125013;34;20115;-66
2021/04/28 00:59:34;;;;;;;2.42;2.22;;;;;;;;;;4124765;34;20411;-67
2021/04/28 01:01:59;;;;;;;2.80;2.37;;;;;;;;;;4137284;34;20107;-67
2021/04/28 01:04:25;;;;;;;2.37;2.12;;;;;;;;;;4137445;34;20122;-67
2021/04/28 01:06:52;;;;;;;2.40;2.20;;;;;;;;;;4124697;34;20538;-67
2021/04/28 01:09:18;;;;;;;2.30;2.10;;;;;;;;;;4113705;34;20111;-67
2021/04/28 01:11:44;;;;;;;2.12;1.90;;;;;;;;;;4124949;34;20111;-67
2021/04/28 01:14:10;;;;;;;3.70;2.47;;;;;;;;;;4137154;34;20520;-67
2021/04/28 01:16:36;;;;;;;2.92;2.22;;;;;;;;;;4136925;34;20131;-67
2021/04/28 01:19:02;;;;;;;2.28;2.08;;;;;;;;;;4137071;34;20543;-67
2021/04/28 01:21:28;;;;;;;2.58;2.20;;;;;;;;;;4136913;34;20464;-67
2021/04/28 01:23:54;;;;;;;3.97;2.60;;;;;;;;;;4137047;34;20123;-67
2021/04/28 01:26:22;;;;;;;2.55;1.85;;;;;;;;;;4134931;34;20130;-67
2021/04/28 01:28:48;;;;;;;2.80;2.50;;;;;;;;;;4124586;34;20198;-67
2021/04/28 01:31:14;;;;;;;2.92;2.58;;;;;;;;;;4124303;34;20135;-67
2021/04/28 01:33:45;;;;;;;3.60;2.55;;;;;;;;;;4124726;34;20223;-67
2021/04/28 01:36:27;;;;;;;2.65;2.12;;;;;;;;;;4124622;34;20453;-67
2021/04/28 01:38:58;;;;;;;2.90;2.50;;;;;;;;;;4124683;34;20122;-67
2021/04/28 01:41:25;;;;;;;3.90;2.40;;;;;;;;;;4124419;34;20183;-67
2021/04/28 01:43:50;;;;;;;2.95;2.30;;;;;;;;;;4113771;34;20489;-67
2021/04/28 01:46:17;;;;;;;3.03;2.12;;;;;;;;;;4124270;34;20124;-66
2021/04/28 01:48:44;;;;;;;5.70;2.33;;;;;;;;;;4124384;34;20127;-66
2021/04/28 01:51:10;;;;;;;3.97;2.53;;;;;;;;;;4124421;34;20119;-67
2021/04/28 01:53:36;;;;;;;3.00;2.10;;;;;;;;;;4124294;34;20146;-66
2021/04/28 01:56:02;;;;;;;2.35;2.15;;;;;;;;;;4124370;34;20212;-67
2021/04/28 01:58:28;;;;;;;4.03;2.80;;;;;;;;;;4113132;34;20126;-67
2021/04/28 02:00:54;;;;;;;4.82;2.40;;;;;;;;;;4121935;34;20135;-67
2021/04/28 02:03:24;;;;;;;3.25;2.10;;;;;;;;;;4123435;34;20479;-67
2021/04/28 02:05:50;;;;;;;3.15;2.20;;;;;;;;;;4110802;34;20131;-67
2021/04/28 02:08:16;;;;;;;3.87;2.45;;;;;;;;;;4111234;34;20120;-68
2021/04/28 02:10:42;;;;;;;3.47;2.28;;;;;;;;;;4123778;34;20130;-66
2021/04/28 02:13:11;;;;;;;3.37;2.33;;;;;;;;;;4123839;34;20143;-67
2021/04/28 02:15:37;;;;;;;4.57;2.42;;;;;;;;;;4110700;34;20123;-67
2021/04/28 02:18:04;;;;;;;3.28;2.50;;;;;;;;;;4123231;34;20228;-66
2021/04/28 02:20:30;;;;;;;2.50;2.08;;;;;;;;;;4111103;34;20123;-66
2021/04/28 02:22:56;;;;;;;4.18;2.62;;;;;;;;;;4121794;34;20160;-67
2021/04/28 02:25:22;;;;;;;2.83;2.10;;;;;;;;;;4110528;34;20220;-67
2021/04/28 02:27:53;;;;;;;3.45;2.45;;;;;;;;;;4130039;34;20135;-66
2021/04/28 02:30:23;;;;;;;3.92;2.45;;;;;;;;;;4136235;34;20502;-66
2021/04/28 02:32:50;;;;;;;3.65;2.20;;;;;;;;;;4136508;34;20408;-66
2021/04/28 02:35:16;;;;;;;2.47;2.10;;;;;;;;;;4136561;34;20113;-66
2021/04/28 02:37:42;;;;;;;2.47;2.17;;;;;;;;;;4113004;34;20541;-66
2021/04/28 02:40:09;;;;;;;2.67;2.08;;;;;;;;;;4125457;34;20563;-66
2021/04/28 02:42:35;;;;;;;3.25;2.45;;;;;;;;;;4126122;34;20091;-66
2021/04/28 02:45:03;;;;;;;3.95;2.65;;;;;;;;;;4138270;34;20170;-66
2021/04/28 02:47:29;;;;;;;5.75;2.35;;;;;;;;;;4138305;34;20187;-68
2021/04/28 02:49:55;;;;;;;2.42;2.22;;;;;;;;;;4125861;34;20120;-67
2021/04/28 02:52:21;;;;;;;4.85;2.30;;;;;;;;;;4126044;34;20145;-66
2021/04/28 02:54:48;;;;;;;5.03;3.45;;;;;;;;;;4126000;34;20131;-65
2021/04/28 02:57:14;;;;;;;3.28;2.20;;;;;;;;;;4125680;34;20527;-66
2021/04/28 02:59:40;;;;;;;4.22;2.20;;;;;;;;;;4125641;34;20138;-68
2021/04/28 03:02:07;;;;;;;6.55;2.33;;;;;;;;;;4125959;34;20096;-69
2021/04/28 03:04:33;;;;;;;3.25;2.50;;;;;;;;;;4138071;34;20096;-66
2021/04/28 03:06:59;;;;;;;3.30;2.40;;;;;;;;;;4125790;34;20123;-66
2021/04/28 03:09:25;;;;;;;3.37;2.33;;;;;;;;;;4114592;34;20690;-66
2021/04/28 03:11:51;;;;;;;3.92;2.45;;;;;;;;;;4114555;34;20620;-65
2021/04/28 03:14:17;;;;;;;3.80;2.35;;;;;;;;;;4114698;34;20134;-65
2021/04/28 03:16:43;;;;;;;3.17;2.42;;;;;;;;;;4138322;34;20176;-67
2021/04/28 03:19:09;;;;;;;3.47;2.28;;;;;;;;;;4138172;34;20251;-67
2021/04/28 03:21:37;;;;;;;3.42;2.30;;;;;;;;;;4138117;34;20119;-67
2021/04/28 03:24:03;;;;;;;6.62;2.70;;;;;;;;;;4114566;34;20477;-66
2021/04/28 03:26:29;;;;;;;3.28;2.65;;;;;;;;;;4125483;34;20131;-67
2021/04/28 03:28:56;;;;;;;3.60;2.40;;;;;;;;;;4136489;34;20150;-66
2021/04/28 03:31:21;;;;;;;4.00;2.20;;;;;;;;;;4125655;34;20123;-67
2021/04/28 03:33:47;;;;;;;4.47;2.47;;;;;;;;;;4114386;34;20127;-66
2021/04/28 03:36:13;;;;;;;6.35;2.60;;;;;;;;;;4137852;34;20135;-66
2021/04/28 03:38:39;;;;;;;8.27;3.20;;;;;;;;;;4125706;34;20119;-66
2021/04/28 03:41:05;;;;;;;3.55;2.45;;;;;;;;;;4138027;34;20851;-67
2021/04/28 03:43:31;;;;;;;7.43;3.85;;;;;;;;;;4137879;34;20135;-68
2021/04/28 03:45:57;;;;;;;2.87;2.50;;;;;;;;;;4137714;34;20535;-66
2021/04/28 03:48:23;;;;;;;3.58;2.50;;;;;;;;;;4137737;34;20147;-66
2021/04/28 03:50:49;;;;;;;3.65;2.42;;;;;;;;;;4137469;34;20126;-66
2021/04/28 03:53:15;;;;;;;3.62;2.55;;;;;;;;;;4137616;34;20131;-66
2021/04/28 03:55:41;;;;;;;3.55;2.55;;;;;;;;;;4137868;34;20302;-67
2021/04/28 03:58:07;;;;;;;3.37;2.30;;;;;;;;;;4137667;34;20126;-66
2021/04/28 04:00:33;;;;;;;4.20;2.53;;;;;;;;;;4125005;34;20147;-67
2021/04/28 04:02:59;;;;;;;4.90;2.80;;;;;;;;;;4137598;34;20227;-67
2021/04/28 04:05:24;;;;;;;5.53;2.45;;;;;;;;;;4125115;34;20566;-67
2021/04/28 04:07:51;;;;;;;2.78;2.40;;;;;;;;;;4125131;34;20316;-67
2021/04/28 04:10:16;;;;;;;7.00;2.70;;;;;;;;;;4124959;34;20186;-67
2021/04/28 04:12:42;;;;;;;3.50;2.70;;;;;;;;;;4137544;34;20640;-67
2021/04/28 04:15:09;;;;;;;6.55;2.80;;;;;;;;;;4137850;34;20127;-67
2021/04/28 04:17:35;;;;;;;3.53;2.22;;;;;;;;;;4137527;34;20103;-67
2021/04/28 04:20:01;;;;;;;2.75;2.15;;;;;;;;;;4137812;34;20202;-67
2021/04/28 04:22:27;;;;;;;4.07;3.17;;;;;;;;;;4137649;34;20534;-67
2021/04/28 04:24:52;;;;;;;5.37;2.70;;;;;;;;;;4137435;34;20223;-67
2021/04/28 04:27:19;;;;;;;5.60;2.92;;;;;;;;;;4124907;34;20209;-67
2021/04/28 04:29:44;;;;;;;4.68;2.25;;;;;;;;;;4137469;34;20136;-67
2021/04/28 04:32:10;;;;;;;3.95;2.67;;;;;;;;;;4137262;34;20127;-67
2021/04/28 04:34:36;;;;;;;2.83;2.15;;;;;;;;;;4124888;34;20138;-66
2021/04/28 04:37:03;;;;;;;9.27;2.42;;;;;;;;;;4137220;34;20117;-66
2021/04/28 04:39:29;;;;;;;3.70;2.30;;;;;;;;;;4137257;34;20469;-67
2021/04/28 04:41:55;;;;;;;4.87;2.45;;;;;;;;;;4124757;34;20216;-67
2021/04/28 04:44:21;;;;;;;3.65;2.72;;;;;;;;;;4133741;34;20127;-67
2021/04/28 04:46:47;;;;;;;5.22;2.47;;;;;;;;;;4144875;34;20103;-68
2021/04/28 04:49:13;;;;;;;4.53;2.22;;;;;;;;;;4137191;34;20235;-68
2021/04/28 04:51:39;;;;;;;5.03;2.70;;;;;;;;;;4137338;34;20215;-68
2021/04/28 04:54:05;;;;;;;2.50;2.17;;;;;;;;;;4137382;34;20119;-69
2021/04/28 04:56:31;;;;;;;5.32;2.45;;;;;;;;;;4124526;34;20107;-69
2021/04/28 04:58:57;;;;;;;3.85;2.33;;;;;;;;;;4137284;34;20111;-69
2021/04/28 05:01:23;;;;;;;4.82;2.70;;;;;;;;;;4137460;34;20130;-69
2021/04/28 05:03:50;;;;;;;4.03;2.53;;;;;;;;;;4138015;34;20127;-69
2021/04/28 05:06:16;;;;;;;2.85;2.10;;;;;;;;;;4113634;34;20108;-68
2021/04/28 05:08:42;;;;;;;3.00;2.50;;;;;;;;;;4137045;34;20139;-70
2021/04/28 05:11:08;;;;;;;3.08;2.35;;;;;;;;;;4137184;34;20102;-68
2021/04/28 05:13:34;;;;;;;6.60;2.40;;;;;;;;;;4137401;34;20546;-69
2021/04/28 05:16:00;;;;;;;6.32;3.08;;;;;;;;;;4138019;34;20138;-70
2021/04/28 05:18:26;;;;;;;3.03;2.60;;;;;;;;;;4137449;34;20516;-68
2021/04/28 05:20:52;;;;;;;3.92;2.47;;;;;;;;;;4137645;34;20183;-68
2021/04/28 05:23:17;;;;;;;4.45;2.25;;;;;;;;;;4137872;34;20281;-68
2021/04/28 05:25:43;;;;;;;3.20;2.00;;;;;;;;;;4143668;34;20213;-68
2021/04/28 05:28:09;;;;;;;4.20;2.87;;;;;;;;;;4153944;34;20123;-68
2021/04/28 05:30:35;;;;;;;11.32;3.25;;;;;;;;;;4154463;34;20076;-68
2021/04/28 05:33:02;;;;;;;3.75;1.92;;;;;;;;;;4154364;34;20107;-68
2021/04/28 05:35:28;;;;;;;3.22;2.10;;;;;;;;;;4146036;34;20185;-69
2021/04/28 05:37:54;;;;;;;11.98;2.83;;;;;;;;;;4138440;34;20118;-68
2021/04/28 05:40:20;;;;;;;6.40;2.12;;;;;;;;;;4137333;34;20139;-68
2021/04/28 05:42:46;;;;;;;4.22;2.22;;;;;;;;;;4113686;34;20527;-68
2021/04/28 05:45:12;;;;;;;2.60;1.95;;;;;;;;;;4124754;34;20139;-68
2021/04/28 05:47:38;;;;;;;5.68;2.35;;;;;;;;;;4124736;34;20131;-68
2021/04/28 05:50:05;;;;;;;13.75;2.92;;;;;;;;;;4124580;34;20154;-68
2021/04/28 05:52:31;;;;;;;8.63;2.30;;;;;;;;;;4136726;34;20131;-68
2021/04/28 05:54:57;;;;;;;9.05;2.30;;;;;;;;;;4124443;34;20671;-68
2021/04/28 05:57:23;;;;;;;3.30;1.80;;;;;;;;;;4136584;34;20122;-68
2021/04/28 05:59:49;;;;;;;3.20;2.10;;;;;;;;;;4136575;34;20546;-68
2021/04/28 06:02:15;;;;;;;11.15;3.85;;;;;;;;;;4136496;34;20169;-69
2021/04/28 06:04:41;;;;;;;18.80;3.17;;;;;;;;;;4136769;34;20119;-69
2021/04/28 06:07:07;;;;;;;5.10;2.25;;;;;;;;;;4136732;34;20130;-68
2021/04/28 06:09:33;;;;;;;6.53;2.30;;;;;;;;;;4136605;34;20139;-68
2021/04/28 06:11:59;;;;;;;4.22;2.20;;;;;;;;;;4136576;34;20232;-69
2021/04/28 06:14:25;;;;;;;2.62;1.87;;;;;;;;;;4136888;34;20150;-69
2021/04/28 06:16:51;;;;;;;9.07;2.95;;;;;;;;;;4138681;34;20535;-69
2021/04/28 06:19:17;;;;;;;5.18;2.47;;;;;;;;;;4138505;34;20142;-67
2021/04/28 06:21:43;;;;;;;2.78;1.85;;;;;;;;;;4138438;34;20146;-69
2021/04/28 06:24:09;;;;;;;4.22;2.10;;;;;;;;;;4138621;34;20129;-68
2021/04/28 06:26:41;;;;;;;5.18;2.00;;;;;;;;;;4138233;34;20543;-69
2021/04/28 06:29:07;;;;;;;3.65;1.73;;;;;;;;;;4139090;34;20092;-69
2021/04/28 06:31:33;;;;;;;3.30;2.22;;;;;;;;;;4138220;34;20814;-69
2021/04/28 06:33:58;;;;;;;14.43;2.80;;;;;;;;;;4138485;34;20119;-68
2021/04/28 06:36:25;;;;;;;3.37;1.65;;;;;;;;;;4138724;34;20114;-68
2021/04/28 06:38:51;;;;;;;7.55;2.40;;;;;;;;;;4138946;34;20143;-69
2021/04/28 06:41:20;;;;;;;9.23;2.50;;;;;;;;;;4139494;34;20091;-68
2021/04/28 06:43:46;;;;;;;4.30;1.87;;;;;;;;;;4139688;34;20123;-69
2021/04/28 06:46:13;;;;;;;2.00;1.80;;;;;;;;;;4139183;34;20119;-67
2021/04/28 06:48:39;;;;;;;7.47;2.78;;;;;;;;;;4139122;34;20135;-69
2021/04/28 06:51:05;;;;;;;3.25;1.70;;;;;;;;;;4138630;34;20469;-69
2021/04/28 06:53:31;;;;;;;4.28;1.90;;;;;;;;;;4125927;34;20135;-70
2021/04/28 06:55:57;;;;;;;4.53;1.92;;;;;;;;;;4138295;34;20181;-71
2021/04/28 06:58:22;;;;;;;3.40;2.45;;;;;;;;;;4138346;34;20135;-69
2021/04/28 07:00:50;;;;;;;6.15;2.00;;;;;;;;;;4138482;34;20138;-69
2021/04/28 07:03:16;;;;;;;4.00;2.00;;;;;;;;;;4138166;34;20214;-68
2021/04/28 07:05:42;;;;;;;7.97;1.62;;;;;;;;;;4138116;34;20146;-69
2021/04/28 07:08:08;;;;;;;2.70;1.50;;;;;;;;;;4138143;34;20573;-68
2021/04/28 07:10:34;;;;;;;5.53;1.77;;;;;;;;;;4125558;34;20130;-68
2021/04/28 07:13:00;;;;;;;8.45;2.40;;;;;;;;;;4137918;34;20129;-68
2021/04/28 07:15:26;;;;;;;5.97;1.85;;;;;;;;;;4138030;34;20123;-68
2021/04/28 07:17:52;;;;;;;4.28;2.08;;;;;;;;;;4125605;34;20219;-68
2021/04/28 07:20:18;;;;;;;2.25;1.80;;;;;;;;;;4125237;34;20127;-69
2021/04/28 07:22:44;;;;;;;3.08;1.73;;;;;;;;;;4137956;34;20126;-69
2021/04/28 07:25:11;;;;;;;1.87;1.55;;;;;;;;;;4137474;34;20119;-69
2021/04/28 07:27:37;;;;;;;8.43;2.00;;;;;;;;;;4137519;34;20088;-69
2021/04/28 07:30:05;;;;;;;3.95;1.80;;;;;;;;;;4137999;34;20453;-69
2021/04/28 07:32:31;;;;;;;2.12;1.87;;;;;;;;;;4136257;34;20505;-68
2021/04/28 07:34:57;;;;;;;5.82;1.90;;;;;;;;;;4137745;34;20141;-68
2021/04/28 07:37:23;;;;;;;3.15;1.65;;;;;;;;;;4137533;34;20119;-69
2021/04/28 07:39:49;;;;;;;4.53;1.67;;;;;;;;;;4137745;34;20124;-68
2021/04/28 07:42:15;;;;;;;3.10;1.75;;;;;;;;;;4137960;34;20115;-69
2021/04/28 07:44:41;;;;;;;4.12;1.50;;;;;;;;;;4137623;34;20468;-69
2021/04/28 07:47:07;;;;;;;16.77;3.12;;;;;;;;;;4137672;34;20476;-68
2021/04/28 07:49:33;;;;;;;2.33;1.70;;;;;;;;;;4137657;34;20143;-67
2021/04/28 07:51:59;;;;;;;5.07;2.20;;;;;;;;;;4137847;34;20119;-68
2021/04/28 07:54:28;;;;;;;2.85;1.92;;;;;;;;;;4138002;34;20117;-68
2021/04/28 07:56:54;;;;;;;7.43;1.83;;;;;;;;;;4137871;34;20198;-68
2021/04/28 07:59:21;;;;;;;4.90;2.20;;;;;;;;;;4137817;34;20130;-70
2021/04/28 08:01:47;;;;;;;2.10;1.70;;;;;;;;;;4138035;34;20213;-69
2021/04/28 08:04:13;;;;;;;4.00;2.10;;;;;;;;;;4137887;34;20127;-67
2021/04/28 08:06:39;;;;;;;9.35;1.92;;;;;;;;;;4137838;34;20110;-69
2021/04/28 08:09:05;;;;;;;6.87;2.00;;;;;;;;;;4137577;34;20116;-66
2021/04/28 08:11:31;;;;;;;5.60;1.90;;;;;;;;;;4137668;34;20144;-66
2021/04/28 08:13:57;;;;;;;1.77;1.40;;;;;;;;;;4137399;34;20135;-66
2021/04/28 08:16:23;;;;;;;5.37;1.70;;;;;;;;;;4137342;34;20208;-69
2021/04/28 08:18:49;;;;;;;2.97;1.62;;;;;;;;;;4137302;34;20626;-69
2021/04/28 08:21:15;;;;;;;4.78;2.12;;;;;;;;;;4137287;34;20203;-68
2021/04/28 08:23:42;;;;;;;3.78;1.58;;;;;;;;;;4125108;34;20198;-68
2021/04/28 08:26:12;;;;;;;1.80;1.45;;;;;;;;;;4137162;34;20099;-67
2021/04/28 08:28:43;;;;;;;4.82;1.80;;;;;;;;;;4137198;34;20107;-68
2021/04/28 08:31:09;;;;;;;2.08;1.83;;;;;;;;;;4137689;34;20175;-68
2021/04/28 08:33:36;;;;;;;5.93;2.17;;;;;;;;;;4137343;34;20117;-68
2021/04/28 08:36:02;;;;;;;4.75;2.20;;;;;;;;;;4136780;34;20119;-69
2021/04/28 08:38:28;;;;;;;4.90;2.40;;;;;;;;;;4137592;34;20455;-69
2021/04/28 08:40:54;;;;;;;5.50;2.97;;;;;;;;;;4137213;34;20555;-69
2021/04/28 08:43:23;;;;;;;6.47;2.25;;;;;;;;;;4137201;34;20227;-69
2021/04/28 08:45:50;;;;;;;7.37;2.75;;;;;;;;;;4125078;34;20192;-70
2021/04/28 08:48:16;;;;;;;7.45;2.22;;;;;;;;;;4137120;34;20147;-70
2021/04/28 08:50:43;;;;;;;2.28;2.08;;;;;;;;;;4124603;34;20137;-70
2021/04/28 08:53:14;;;;;;;4.50;2.00;;;;;;;;;;4137321;34;20608;-70
2021/04/28 08:55:40;;;;;;;5.00;2.12;;;;;;;;;;4125236;34;20278;-70
2021/04/28 08:58:06;;;;;;;8.85;2.30;;;;;;;;;;4137298;34;20120;-70
2021/04/28 09:00:33;;;;;;;4.70;2.37;;;;;;;;;;4135820;34;20126;-71
2021/04/28 09:03:00;;;;;;;4.28;3.03;;;;;;;;;;4137158;34;20122;-71
2021/04/28 09:05:27;;;;;;;6.57;2.78;;;;;;;;;;4135843;34;20106;-70
2021/04/28 09:07:53;;;;;;;3.40;2.85;;;;;;;;;;4148396;34;20130;-68
2021/04/28 09:10:21;;;;;;;7.30;3.28;;;;;;;;;;4149180;34;20111;-67
2021/04/28 09:13:20;;;;;;;7.28;4.20;;;;;;;;;;4111283;34;20114;-66
2021/04/28 09:15:48;;;;;;;4.60;3.28;;;;;;;;;;4123649;34;20180;-65
2021/04/28 09:18:15;;;;;;;4.07;3.17;;;;;;;;;;4123507;34;20551;-65
2021/04/28 09:20:47;;;;;;;8.05;2.90;;;;;;;;;;4123828;34;20095;-65
2021/04/28 09:23:15;;;;;;;9.30;3.22;;;;;;;;;;4112136;34;20464;-65
2021/04/28 09:25:44;;;;;;;4.57;2.60;;;;;;;;;;4123458;34;20114;-67
2021/04/28 09:28:22;;;;;;;3.00;2.30;;;;;;;;;;4132537;34;20120;-67
2021/04/28 09:30:48;;;;;;;5.12;2.62;;;;;;;;;;4124178;34;20540;-65
2021/04/28 09:33:14;;;;;;;6.18;2.60;;;;;;;;;;4137174;34;20107;-66
2021/04/28 09:35:41;;;;;;;4.72;3.50;;;;;;;;;;4134613;34;20100;-65
2021/04/28 09:38:07;;;;;;;3.53;2.97;;;;;;;;;;4110815;34;20213;-65
2021/04/28 09:40:48;;;;;;;5.90;2.72;;;;;;;;;;4110776;34;20147;-65
2021/04/28 09:43:14;;;;;;;4.43;2.33;;;;;;;;;;4123313;34;20107;-65
2021/04/28 09:45:50;;;;;;;3.40;2.17;;;;;;;;;;4122981;34;20203;-64
2021/04/28 09:48:24;;;;;;;3.97;2.30;;;;;;;;;;4123011;34;20096;-66
2021/04/28 09:51:05;;;;;;;4.00;3.00;;;;;;;;;;4125124;34;20130;-65
2021/04/28 09:53:31;;;;;;;5.05;2.70;;;;;;;;;;4136787;34;20107;-66
2021/04/28 09:55:58;;;;;;;3.25;2.12;;;;;;;;;;4134967;34;20540;-65
2021/04/28 09:58:46;;;;;;;2.92;2.58;;;;;;;;;;4136565;34;20113;-65
2021/04/28 10:01:14;;;;;;;4.45;3.17;;;;;;;;;;4140942;34;20118;-65
2021/04/28 10:03:49;;;;;;;3.72;3.08;;;;;;;;;;4150191;34;20196;-64
2021/04/28 10:06:36;;;;;;;4.40;3.03;;;;;;;;;;4138727;34;20115;-65
2021/04/28 10:09:04;;;;;;;3.15;2.33;;;;;;;;;;4112685;34;20127;-66
2021/04/28 10:11:30;;;;;;;9.63;2.60;;;;;;;;;;4110817;34;20080;-67
2021/04/28 10:13:56;;;;;;;3.35;1.85;;;;;;;;;;4123253;34;20095;-64
2021/04/28 10:16:22;;;;;;;3.85;2.60;;;;;;;;;;4122821;34;20115;-64
2021/04/28 10:18:48;;;;;;;3.20;1.83;;;;;;;;;;4122376;34;20131;-66
2021/04/28 10:21:14;;;;;;;1.77;1.60;;;;;;;;;;4110662;34;20127;-70
2021/04/28 10:23:40;;;;;;;5.07;1.80;;;;;;;;;;4123144;34;20132;-66
2021/04/28 10:26:06;;;;;;;2.92;2.35;;;;;;;;;;4110336;34;20544;-65
2021/04/28 10:28:32;;;;;;;5.15;2.90;;;;;;;;;;4121541;34;20120;-69
2021/04/28 10:30:59;;;;;;;4.07;3.25;;;;;;;;;;4121977;34;20484;-70
2021/04/28 10:33:28;;;;;;;5.00;2.83;;;;;;;;;;4100799;34;20295;-68
2021/04/28 10:35:57;;;;;;;5.12;3.42;;;;;;;;;;4114801;34;20107;-68
2021/04/28 10:38:26;;;;;;;4.10;3.40;;;;;;;;;;4123627;34;20221;-67
2021/04/28 10:40:53;;;;;;;3.62;3.25;;;;;;;;;;4123540;34;20204;-65
2021/04/28 10:43:20;;;;;;;6.97;3.70;;;;;;;;;;4124171;34;20127;-66
2021/04/28 10:45:47;;;;;;;3.67;2.65;;;;;;;;;;4134906;34;20084;-66
2021/04/28 10:48:21;;;;;;;3.80;2.70;;;;;;;;;;4136191;34;20114;-66
2021/04/28 10:50:48;;;;;;;3.97;2.80;;;;;;;;;;4124347;34;20162;-68
2021/04/28 10:53:18;;;;;;;6.20;3.03;;;;;;;;;;4142561;34;20115;-68
2021/04/28 10:56:12;;;;;;;4.05;2.47;;;;;;;;;;4146962;34;20139;-65
2021/04/28 10:58:40;;;;;;;4.78;2.50;;;;;;;;;;4149602;34;20221;-66
2021/04/28 11:01:10;;;;;;;3.22;2.40;;;;;;;;;;4137866;34;20174;-68
2021/04/28 11:03:45;;;;;;;5.72;2.40;;;;;;;;;;4151759;34;20133;-69
2021/04/28 11:06:26;;;;;;;4.18;2.10;;;;;;;;;;4145857;34;20103;-68
2021/04/28 11:09:06;;;;;;;1.75;1.65;;;;;;;;;;4137200;34;20155;-67
2021/04/28 11:11:35;;;;;;;4.30;2.03;;;;;;;;;;4136054;34;20553;-70
2021/04/28 11:14:21;;;;;;;2.28;1.80;;;;;;;;;;4138212;34;20204;-69
2021/04/28 11:16:51;;;;;;;8.02;2.20;;;;;;;;;;4137955;34;20130;-68
2021/04/28 11:19:23;;;;;;;3.10;2.28;;;;;;;;;;4138088;34;20123;-68
2021/04/28 11:22:08;;;;;;;2.87;1.60;;;;;;;;;;4129675;34;20533;-69
2021/04/28 11:25:12;;;;;;;4.33;2.27;;;;;;;;;;4124914;34;20540;-69
2021/04/28 11:27:56;;;;;;;2.70;1.70;;;;;;;;;;4130443;34;20119;-69
2021/04/28 11:30:34;;;;;;;2.45;1.60;;;;;;;;;;4137853;34;20198;-70
2021/04/28 11:33:25;;;;;;;2.72;1.80;;;;;;;;;;4138017;34;20100;-70
2021/04/28 11:35:54;;;;;;;2.42;1.80;;;;;;;;;;4126033;34;20112;-69
2021/04/28 11:38:24;;;;;;;3.62;1.80;;;;;;;;;;4137771;34;20132;-69
2021/04/28 11:41:04;;;;;;;4.10;1.80;;;;;;;;;;4137974;34;20202;-68
2021/04/28 11:43:42;;;;;;;3.10;1.67;;;;;;;;;;4137894;34;20127;-69
2021/04/28 11:46:16;;;;;;;2.55;1.50;;;;;;;;;;4138203;34;20460;-70
2021/04/28 11:48:43;;;;;;;5.07;1.67;;;;;;;;;;4129358;34;20104;-69
2021/04/28 11:51:17;;;;;;;2.28;1.55;;;;;;;;;;4138286;34;20118;-68
2021/04/28 11:53:50;;;;;;;2.90;1.90;;;;;;;;;;4139168;34;20112;-70
2021/04/28 11:56:43;;;;;;;1.87;1.50;;;;;;;;;;4138084;34;20111;-70
2021/04/28 11:59:20;;;;;;;;;;;;;;;;;;4139885;34;20114;-70
2021/04/28 12:01:46;;;;;;;4.45;1.70;;;;;;;;;;4138920;34;20080;-71
2021/04/28 12:04:12;;;;;;;1.40;1.30;;;;;;;;;;4138363;34;20134;-71
2021/04/28 12:06:44;;;;;;;1.98;1.50;;;;;;;;;;4137539;34;20203;-69
2021/04/28 12:09:26;;;;;;;3.15;1.52;;;;;;;;;;4137791;34;20461;-69
2021/04/28 12:12:21;;;;;;;1.48;1.37;;;;;;;;;;4125119;34;20135;-67
2021/04/28 12:14:48;;;;;;;5.65;1.55;;;;;;;;;;4137410;34;20107;-68
2021/04/28 12:17:21;;;;;;;3.80;1.50;;;;;;;;;;4137554;34;20130;-67
2021/04/28 12:19:49;;;;;;;1.73;1.35;;;;;;;;;;4137485;34;20123;-67
2021/04/28 12:22:15;;;;;;;1.90;1.60;;;;;;;;;;4137408;34;20112;-67
2021/04/28 12:24:45;;;;;;;2.67;1.60;;;;;;;;;;4137605;34;20126;-67
2021/04/28 12:27:30;;;;;;;2.08;1.37;;;;;;;;;;4135627;34;20205;-67
2021/04/28 12:29:58;;;;;;;4.00;1.67;;;;;;;;;;4138018;34;20103;-70
2021/04/28 12:32:34;;;;;;;1.50;1.40;;;;;;;;;;4143520;34;20174;-70
2021/04/28 12:35:12;;;;;;;2.28;1.58;;;;;;;;;;4139137;34;20530;-69
2021/04/28 12:37:38;;;;;;;2.75;1.30;;;;;;;;;;4141933;34;20449;-69
2021/04/28 12:40:07;;;;;;;4.03;1.70;;;;;;;;;;4137843;34;20118;-69
2021/04/28 12:42:35;;;;;;;2.47;1.85;;;;;;;;;;4137471;34;20577;-69
2021/04/28 12:45:10;;;;;;;4.15;1.90;;;;;;;;;;4114764;34;20203;-69
2021/04/28 12:47:38;;;;;;;2.58;2.05;;;;;;;;;;4132948;34;20123;-70
2021/04/28 12:50:11;;;;;;;7.10;2.12;;;;;;;;;;4112636;34;20143;-70
2021/04/28 12:52:41;;;;;;;5.65;2.75;;;;;;;;;;4123978;34;20119;-70
2021/04/28 12:55:26;;;;;;;5.25;2.47;;;;;;;;;;4124277;34;20510;-69
2021/04/28 12:57:56;;;;;;;2.58;1.70;;;;;;;;;;4124059;34;20124;-70
2021/04/28 13:00:23;;;;;;;2.33;1.48;;;;;;;;;;4124085;34;20106;-69
2021/04/28 13:03:24;;;;;;;2.83;1.60;;;;;;;;;;4135049;34;20123;-70
2021/04/28 13:06:05;;;;;;;2.70;1.75;;;;;;;;;;4134802;34;20544;-69
2021/04/28 13:08:38;;;;;;;4.10;2.03;;;;;;;;;;4125215;34;20547;-69
2021/04/28 13:11:11;;;;;;;2.72;1.90;;;;;;;;;;4137100;34;20115;-69
2021/04/28 13:13:39;;;;;;;5.00;1.85;;;;;;;;;;4142216;34;20099;-70
2021/04/28 13:16:06;;;;;;;2.25;1.50;;;;;;;;;;4149003;34;20094;-69
2021/04/28 13:19:09;;;;;;;5.50;1.80;;;;;;;;;;4123268;34;20119;-69
2021/04/28 13:21:50;;;;;;;3.30;1.70;;;;;;;;;;4127880;34;20421;-68
2021/04/28 13:24:23;;;;;;;5.00;1.90;;;;;;;;;;4146827;34;20111;-69
2021/04/28 13:27:24;;;;;;;2.33;1.90;;;;;;;;;;4134085;34;20107;-69
2021/04/28 13:29:57;;;;;;;2.03;1.75;;;;;;;;;;4136940;34;20104;-69
2021/04/28 13:32:38;;;;;;;5.00;2.00;;;;;;;;;;4133752;34;20126;-68
2021/04/28 13:35:13;;;;;;;3.00;1.83;;;;;;;;;;4137012;34;20123;-67
2021/04/28 13:37:39;;;;;;;4.85;1.90;;;;;;;;;;4123647;34;20119;-67
2021/04/28 13:40:20;;;;;;;4.30;2.28;;;;;;;;;;4123321;34;20127;-67
2021/04/28 13:42:46;;;;;;;3.78;1.90;;;;;;;;;;4123359;34;20087;-68
2021/04/28 13:45:13;;;;;;;2.03;1.42;;;;;;;;;;4135930;34;20143;-68
2021/04/28 13:47:38;;;;;;;3.92;1.70;;;;;;;;;;4133730;34;20235;-68
2021/04/28 13:50:05;;;;;;;2.92;2.05;;;;;;;;;;4135347;34;20468;-68
2021/04/28 13:52:31;;;;;;;2.47;1.52;;;;;;;;;;4124302;34;20104;-68
2021/04/28 13:54:57;;;;;;;1.85;1.55;;;;;;;;;;4123403;34;20115;-67
2021/04/28 13:57:23;;;;;;;2.92;1.70;;;;;;;;;;4110631;34;20115;-71
2021/04/28 13:59:49;;;;;;;2.40;1.70;;;;;;;;;;4123437;34;20215;-68
2021/04/28 14:02:15;;;;;;;3.08;1.95;;;;;;;;;;4122968;34;20112;-68
2021/04/28 14:04:41;;;;;;;2.40;2.00;;;;;;;;;;4123922;34;20212;-68
2021/04/28 14:07:07;;;;;;;2.00;1.50;;;;;;;;;;4132980;34;20100;-68
2021/04/28 14:09:33;;;;;;;2.97;1.70;;;;;;;;;;4134310;34;20135;-68
2021/04/28 14:11:59;;;;;;;6.87;2.12;;;;;;;;;;4128808;34;20104;-68
2021/04/28 14:14:25;;;;;;;2.87;1.58;;;;;;;;;;4128946;34;20592;-68
2021/04/28 14:16:51;;;;;;;3.37;1.92;;;;;;;;;;4124197;34;20105;-69
2021/04/28 14:19:17;;;;;;;3.45;1.80;;;;;;;;;;4130490;34;20480;-68
2021/04/28 14:21:43;;;;;;;8.00;1.98;;;;;;;;;;4129631;34;20099;-68
2021/04/28 14:24:10;;;;;;;1.62;1.40;;;;;;;;;;4111329;34;20132;-68
2021/04/28 14:26:37;;;;;;;2.10;1.25;;;;;;;;;;4122014;34;20232;-68
2021/04/28 14:29:03;;;;;;;2.20;1.60;;;;;;;;;;4136659;34;20108;-69
2021/04/28 14:31:29;;;;;;;2.05;1.35;;;;;;;;;;4136502;34;20551;-69
2021/04/28 14:33:55;;;;;;;1.77;1.45;;;;;;;;;;4123864;34;20192;-69
2021/04/28 14:36:21;;;;;;;2.97;1.92;;;;;;;;;;4138185;34;20103;-69
2021/04/28 14:38:47;;;;;;;4.85;2.83;;;;;;;;;;4138321;34;20131;-69
2021/04/28 14:41:13;;;;;;;8.93;2.90;;;;;;;;;;4138080;34;20127;-69
2021/04/28 14:43:40;;;;;;;3.58;2.40;;;;;;;;;;4125767;34;20540;-68
2021/04/28 14:46:06;;;;;;;4.45;2.30;;;;;;;;;;4125896;34;20134;-70
2021/04/28 14:48:32;;;;;;;3.20;2.37;;;;;;;;;;4138443;34;20099;-68
2021/04/28 14:51:03;;;;;;;3.35;2.00;;;;;;;;;;4125947;34;20190;-68
2021/04/28 14:53:29;;;;;;;1.42;1.33;;;;;;;;;;4138337;34;20485;-67
2021/04/28 14:55:55;;;;;;;1.62;1.52;;;;;;;;;;4124946;34;20112;-67
2021/04/28 14:58:21;;;;;;;1.92;1.62;;;;;;;;;;4138177;34;20123;-66
2021/04/28 15:00:48;;;;;;;2.50;1.60;;;;;;;;;;4138035;34;20437;-67
2021/04/28 15:03:14;;;;;;;2.00;1.80;;;;;;;;;;4138056;34;20114;-66
2021/04/28 15:05:40;;;;;;;1.60;1.50;;;;;;;;;;4138082;34;20190;-66
2021/04/28 15:08:06;;;;;;;1.73;1.60;;;;;;;;;;4138119;34;20499;-66
2021/04/28 15:10:33;;;;;;;5.05;2.03;;;;;;;;;;4138561;34;20200;-67
2021/04/28 15:12:58;;;;;;;4.82;1.87;;;;;;;;;;4125846;34;20114;-67
2021/04/28 15:15:24;;;;;;;4.32;2.00;;;;;;;;;;4138877;34;20119;-67
2021/04/28 15:17:51;;;;;;;5.97;2.20;;;;;;;;;;4151258;34;20562;-70